createdAt,value
2022-10-11T00:00:34.696Z,1.98
2022-10-11T00:03:40.999Z,2.15
2022-10-11T00:06:46.844Z,1.90
2022-10-11T00:09:53.222Z,3.00
2022-10-11T00:13:02.309Z,2.33
2022-10-11T00:16:08.762Z,2.08
2022-10-11T00:19:14.745Z,1.60
2022-10-11T00:22:21.183Z,2.00
2022-10-11T00:25:27.718Z,1.80
2022-10-11T00:28:32.839Z,2.17
2022-10-11T00:31:38.132Z,2.08
2022-10-11T00:34:44.370Z,1.95
2022-10-11T00:37:51.191Z,1.75
2022-10-11T00:40:57.535Z,2.08
2022-10-11T00:44:32.535Z,1.70
2022-10-11T00:47:39.931Z,1.82
2022-10-11T00:50:48.129Z,1.82
2022-10-11T00:53:54.860Z,1.85
2022-10-11T00:57:04.222Z,1.60
2022-10-11T01:00:10.220Z,2.00
2022-10-11T01:03:16.502Z,2.00
2022-10-11T01:06:22.061Z,1.70
2022-10-11T01:09:28.198Z,2.00
2022-10-11T01:12:36.338Z,1.85
2022-10-11T01:16:02.679Z,2.00
2022-10-11T01:19:51.393Z,1.70
2022-10-11T01:23:10.862Z,1.87
2022-10-11T01:26:42.490Z,1.70
2022-10-11T01:30:19.573Z,1.70
2022-10-11T01:33:34.668Z,2.20
2022-10-11T01:40:23.903Z,1.70
2022-10-11T01:43:30.494Z,1.60
2022-10-11T01:46:36.735Z,1.92
2022-10-11T01:49:42.946Z,2.00
2022-10-11T01:52:50.169Z,2.00
2022-10-11T01:56:08.217Z,1.85
2022-10-11T01:59:43.981Z,1.55
2022-10-11T02:03:20.846Z,1.80
2022-10-11T02:06:36.944Z,2.45
2022-10-11T02:09:52.214Z,2.08
2022-10-11T02:13:23.694Z,2.00
2022-10-11T02:16:32.359Z,1.90
2022-10-11T02:19:42.737Z,1.92
2022-10-11T02:22:51.567Z,1.60
2022-10-11T02:25:57.823Z,1.75
2022-10-11T02:29:04.140Z,1.80
2022-10-11T02:32:09.536Z,2.00
2022-10-11T02:35:17.391Z,2.33
2022-10-11T02:38:54.421Z,2.37
2022-10-11T02:42:00.403Z,1.92
2022-10-11T02:45:10.473Z,2.30
2022-10-11T02:48:18.342Z,2.05
2022-10-11T02:51:29.672Z,2.00
2022-10-11T02:54:35.985Z,2.02
2022-10-11T02:57:43.331Z,1.82
2022-10-11T03:00:50.051Z,2.10
2022-10-11T03:03:58.604Z,2.05
2022-10-11T03:07:05.156Z,4.08
2022-10-11T03:10:11.153Z,3.27
2022-10-11T03:13:18.674Z,2.10
2022-10-11T03:16:24.715Z,1.95
2022-10-11T03:19:30.905Z,1.80
2022-10-11T03:22:36.369Z,1.85
2022-10-11T03:25:42.780Z,1.87
2022-10-11T03:28:49.282Z,2.05
2022-10-11T03:31:55.005Z,2.12
2022-10-11T03:35:01.577Z,2.30
2022-10-11T03:38:11.117Z,2.00
2022-10-11T03:41:14.252Z,2.00
2022-10-11T03:44:20.217Z,2.10
2022-10-11T03:47:27.454Z,1.98
2022-10-11T03:50:33.262Z,1.90
2022-10-11T03:53:39.250Z,1.95
2022-10-11T03:56:48.118Z,3.42
2022-10-11T03:59:55.857Z,2.00
2022-10-11T04:03:03.992Z,1.75
2022-10-11T04:06:10.987Z,2.20
2022-10-11T04:09:18.648Z,2.00
2022-10-11T04:12:25.540Z,2.00
2022-10-11T04:15:32.267Z,2.72
2022-10-11T04:18:38.238Z,1.70
2022-10-11T04:21:43.929Z,2.08
2022-10-11T04:24:51.232Z,1.80
2022-10-11T04:27:57.819Z,2.27
2022-10-11T04:31:03.600Z,1.82
2022-10-11T04:34:10.006Z,2.20
2022-10-11T04:37:15.072Z,2.10
2022-10-11T04:40:21.489Z,2.02
2022-10-11T04:43:27.776Z,1.87
2022-10-11T04:46:33.023Z,2.15
2022-10-11T04:49:39.475Z,2.10
2022-10-11T04:52:45.707Z,2.90
2022-10-11T04:55:52.348Z,2.35
2022-10-11T04:59:00.988Z,2.80
2022-10-11T05:02:08.609Z,2.22
2022-10-11T05:05:15.827Z,1.80
2022-10-11T05:08:23.495Z,2.33
2022-10-11T05:11:30.674Z,2.10
2022-10-11T05:14:35.953Z,2.20
2022-10-11T05:17:42.028Z,2.17
2022-10-11T05:20:47.824Z,2.17
2022-10-11T05:23:53.209Z,2.95
2022-10-11T05:27:03.027Z,2.15
2022-10-11T05:30:05.305Z,6.42
2022-10-11T05:33:11.458Z,2.33
2022-10-11T05:36:18.167Z,2.40
2022-10-11T05:39:23.249Z,2.35
2022-10-11T05:42:29.444Z,3.47
2022-10-11T05:45:36.862Z,4.60
2022-10-11T05:48:43.303Z,4.55
2022-10-11T05:51:49.704Z,4.30
2022-10-11T05:54:56.079Z,8.08
2022-10-11T05:58:03.029Z,4.08
2022-10-11T06:01:10.113Z,3.08
2022-10-11T06:04:15.708Z,3.00
2022-10-11T06:07:21.768Z,2.67
2022-10-11T06:10:28.186Z,2.77
2022-10-11T06:13:36.408Z,2.60
2022-10-11T06:16:42.053Z,2.65
2022-10-11T06:19:47.882Z,2.80
2022-10-11T06:22:54.507Z,2.65
2022-10-11T06:26:16.931Z,3.02
2022-10-11T06:29:22.533Z,2.90
2022-10-11T06:32:29.947Z,2.98
2022-10-11T06:35:37.008Z,2.75
2022-10-11T06:38:45.376Z,2.40
2022-10-11T06:41:51.676Z,3.05
2022-10-11T06:44:59.538Z,3.12
2022-10-11T06:48:06.053Z,3.02
2022-10-11T06:51:14.993Z,2.25
2022-10-11T06:54:22.352Z,2.42
2022-10-11T06:57:30.319Z,3.00
2022-10-11T07:00:37.214Z,3.00
2022-10-11T07:03:43.559Z,2.65
2022-10-11T07:06:53.183Z,2.50
2022-10-11T07:09:59.924Z,3.15
2022-10-11T07:13:09.926Z,3.37
2022-10-11T07:16:18.774Z,2.80
2022-10-11T07:19:25.787Z,2.67
2022-10-11T07:22:34.411Z,3.00
2022-10-11T07:25:43.052Z,3.10
2022-10-11T07:28:48.360Z,2.52
2022-10-11T07:31:57.872Z,3.12
2022-10-11T07:35:04.099Z,2.87
2022-10-11T07:38:11.156Z,3.02
2022-10-11T07:41:19.913Z,3.33
2022-10-11T07:44:26.458Z,3.00
2022-10-11T07:47:31.662Z,3.42
2022-10-11T07:50:37.566Z,3.40
2022-10-11T07:53:45.161Z,5.40
2022-10-11T07:56:51.301Z,8.38
2022-10-11T07:59:57.508Z,4.30
2022-10-11T08:03:06.151Z,4.50
2022-10-11T08:06:18.540Z,3.98
2022-10-11T08:09:25.249Z,3.90
2022-10-11T08:12:31.504Z,4.12
2022-10-11T08:15:38.310Z,3.80
2022-10-11T08:18:46.393Z,4.33
2022-10-11T08:21:52.627Z,4.03
2022-10-11T08:25:00.084Z,4.60
2022-10-11T08:28:04.887Z,5.50
2022-10-11T08:31:10.824Z,5.67
2022-10-11T08:34:17.316Z,6.72
2022-10-11T08:37:24.993Z,5.97
2022-10-11T08:40:35.434Z,5.70
2022-10-11T08:44:00.200Z,6.42
2022-10-11T08:47:13.599Z,6.10
2022-10-11T08:50:22.528Z,9.80
2022-10-11T08:54:07.554Z,9.23
2022-10-11T08:57:12.009Z,8.15
2022-10-11T09:00:26.541Z,6.47
2022-10-11T09:03:54.142Z,5.58
2022-10-11T09:07:34.427Z,5.35
2022-10-11T09:11:05.239Z,4.78
2022-10-11T09:14:54.845Z,4.65
2022-10-11T09:18:09.871Z,5.10
2022-10-11T09:21:40.900Z,4.80
2022-10-11T09:25:18.082Z,4.67
2022-10-11T09:28:49.838Z,5.12
2022-10-11T09:32:03.159Z,4.42
2022-10-11T09:35:35.892Z,4.03
2022-10-11T09:39:06.793Z,4.47
2022-10-11T09:42:18.124Z,4.15
2022-10-11T09:45:36.502Z,4.15
2022-10-11T09:48:48.320Z,4.20
2022-10-11T09:51:58.793Z,5.33
2022-10-11T09:55:11.195Z,4.65
2022-10-11T09:58:18.972Z,3.55
2022-10-11T10:01:27.149Z,3.50
2022-10-11T10:04:36.175Z,3.65
2022-10-11T10:07:43.075Z,3.70
2022-10-11T10:10:59.550Z,4.67
2022-10-11T10:14:10.133Z,4.62
2022-10-11T10:17:21.678Z,4.20
2022-10-11T10:20:40.330Z,4.53
2022-10-11T10:23:49.407Z,6.12
2022-10-11T10:26:56.411Z,4.47
2022-10-11T10:30:29.763Z,5.10
2022-10-11T10:33:33.634Z,4.00
2022-10-11T10:36:50.034Z,3.47
2022-10-11T10:40:07.116Z,3.30
2022-10-11T10:43:13.971Z,3.20
2022-10-11T10:47:03.401Z,3.30
2022-10-11T10:50:33.348Z,3.40
2022-10-11T10:53:58.729Z,3.00
2022-10-11T10:57:10.880Z,3.00
2022-10-11T11:00:33.538Z,2.80
2022-10-11T11:04:02.667Z,3.60
2022-10-11T11:07:34.833Z,2.35
2022-10-11T11:11:02.935Z,2.83
2022-10-11T11:14:19.808Z,2.42
2022-10-11T11:17:52.405Z,2.80
2022-10-11T11:21:28.960Z,2.30
2022-10-11T11:25:02.980Z,2.50
2022-10-11T11:28:19.651Z,2.45
2022-10-11T11:31:58.242Z,2.60
2022-10-11T11:35:18.378Z,2.70
2022-10-11T11:38:38.145Z,2.30
2022-10-11T11:41:55.408Z,2.30
2022-10-11T11:45:05.576Z,2.12
2022-10-11T11:48:18.678Z,2.52
2022-10-11T11:51:35.453Z,2.30
2022-10-11T11:55:07.182Z,2.20
2022-10-11T11:58:52.088Z,4.00
2022-10-11T12:02:12.967Z,2.92
2022-10-11T12:05:22.981Z,2.72
2022-10-11T12:08:42.623Z,2.50
2022-10-11T12:11:58.154Z,2.08
2022-10-11T12:15:06.192Z,3.00
2022-10-11T12:18:18.359Z,2.20
2022-10-11T12:21:52.958Z,2.10
2022-10-11T12:25:25.397Z,2.27
2022-10-11T12:28:58.241Z,2.10
2022-10-11T12:32:17.753Z,2.30
2022-10-11T12:35:50.481Z,2.27
2022-10-11T12:38:57.633Z,2.45
2022-10-11T12:42:10.803Z,2.40
2022-10-11T12:45:30.239Z,2.65
2022-10-11T12:49:02.804Z,2.27
2022-10-11T12:52:18.198Z,2.10
2022-10-11T12:55:38.565Z,3.10
2022-10-11T12:58:53.874Z,2.87
2022-10-11T13:02:13.001Z,3.30
2022-10-11T13:05:44.744Z,2.90
2022-10-11T13:08:52.631Z,2.92
2022-10-11T13:12:08.524Z,3.23
2022-10-11T13:15:20.766Z,2.60
2022-10-11T13:18:30.933Z,2.50
2022-10-11T13:21:48.181Z,3.42
2022-10-11T13:24:54.485Z,3.25
2022-10-11T13:28:00.053Z,3.22
2022-10-11T13:31:12.661Z,3.00
2022-10-11T13:34:22.397Z,3.60
2022-10-11T13:37:33.522Z,3.40
2022-10-11T13:40:39.763Z,2.90
2022-10-11T13:43:45.730Z,2.55
2022-10-11T13:46:53.893Z,2.87
2022-10-11T13:50:02.271Z,2.50
2022-10-11T13:53:15.630Z,3.58
2022-10-11T13:56:21.648Z,3.02
2022-10-11T13:59:38.121Z,2.55
2022-10-11T14:02:44.571Z,2.65
2022-10-11T14:05:58.869Z,1.98
2022-10-11T14:09:10.743Z,2.33
2022-10-11T14:12:52.859Z,2.90
2022-10-11T14:15:58.976Z,3.03
2022-10-11T14:19:17.461Z,2.75
2022-10-11T14:22:30.011Z,3.17
2022-10-11T14:25:35.559Z,3.98
2022-10-11T14:28:41.206Z,3.20
2022-10-11T14:31:48.280Z,3.80
2022-10-11T14:34:55.168Z,2.92
2022-10-11T14:38:01.656Z,2.42
2022-10-11T14:41:07.305Z,2.20
2022-10-11T14:44:14.215Z,3.80
2022-10-11T14:47:20.891Z,3.25
2022-10-11T14:50:42.967Z,4.83
2022-10-11T14:53:51.103Z,3.80
2022-10-11T14:56:56.861Z,3.35
2022-10-11T15:00:04.212Z,3.83
2022-10-11T15:03:10.379Z,3.77
2022-10-11T15:06:16.341Z,4.30
2022-10-11T15:09:25.102Z,4.40
2022-10-11T15:12:30.127Z,4.47
2022-10-11T15:15:40.787Z,8.65
2022-10-11T15:18:47.395Z,15.15
2022-10-11T15:21:54.972Z,14.03
2022-10-11T15:25:00.621Z,15.63
2022-10-11T15:28:07.756Z,11.50
2022-10-11T15:31:15.097Z,8.73
2022-10-11T15:34:22.119Z,10.85
2022-10-11T15:37:27.742Z,8.95
2022-10-11T15:40:40.437Z,12.37
2022-10-11T15:43:46.226Z,15.97
2022-10-11T15:46:52.994Z,14.47
2022-10-11T15:49:52.692Z,18.57
2022-10-11T15:52:58.429Z,19.10
2022-10-11T15:56:07.809Z,24.30
2022-10-11T15:59:14.163Z,20.30
2022-10-11T16:02:20.957Z,18.37
2022-10-11T16:05:27.825Z,14.53
2022-10-11T16:08:32.916Z,13.98
2022-10-11T16:11:39.826Z,16.12
2022-10-11T16:14:47.692Z,24.75
2022-10-11T16:17:54.325Z,27.58
2022-10-11T16:21:01.683Z,32.70
2022-10-11T16:24:08.118Z,16.62
2022-10-11T16:27:17.961Z,29.32
2022-10-11T16:30:21.258Z,20.70
2022-10-11T16:33:26.750Z,35.45
2022-10-11T16:36:45.173Z,32.13
2022-10-11T16:39:52.051Z,22.93
2022-10-11T16:42:58.357Z,21.60
2022-10-11T16:46:12.453Z,26.90
2022-10-11T16:49:17.969Z,14.93
2022-10-11T16:52:24.352Z,10.40
2022-10-11T16:55:31.202Z,11.63
2022-10-11T16:58:36.805Z,12.63
2022-10-11T17:01:43.547Z,12.47
2022-10-11T17:04:50.648Z,10.68
2022-10-11T17:07:56.364Z,7.53
2022-10-11T17:11:04.806Z,8.63
2022-10-11T17:14:11.944Z,5.12
2022-10-11T17:17:19.086Z,9.93
2022-10-11T17:20:26.162Z,4.97
2022-10-11T17:23:32.754Z,12.18
2022-10-11T17:26:40.352Z,29.30
2022-10-11T17:29:49.973Z,17.37
2022-10-11T17:32:55.630Z,15.78
2022-10-11T17:36:03.782Z,12.78
2022-10-11T17:39:10.620Z,7.22
2022-10-11T17:42:15.393Z,5.87
2022-10-11T17:45:23.664Z,5.42
2022-10-11T17:48:30.494Z,4.65
2022-10-11T17:51:36.804Z,5.00
2022-10-11T17:54:42.988Z,4.40
2022-10-11T17:57:50.616Z,5.92
2022-10-11T18:00:58.162Z,5.20
2022-10-11T18:04:19.960Z,5.00
2022-10-11T18:07:27.156Z,4.70
2022-10-11T18:10:33.920Z,5.55
2022-10-11T18:13:39.748Z,5.75
2022-10-11T18:16:47.879Z,7.53
2022-10-11T18:19:56.567Z,8.20
2022-10-11T18:23:03.519Z,7.25
2022-10-11T18:26:10.210Z,6.92
2022-10-11T18:29:20.381Z,7.90
2022-10-11T18:32:27.523Z,8.48
2022-10-11T18:35:34.866Z,8.33
2022-10-11T18:38:40.700Z,8.10
2022-10-11T18:41:47.463Z,8.80
2022-10-11T18:44:53.565Z,8.48
2022-10-11T18:47:58.965Z,8.80
2022-10-11T18:51:05.190Z,7.17
2022-10-11T18:54:16.885Z,7.00
2022-10-11T18:57:22.677Z,6.15
2022-10-11T19:00:40.765Z,6.30
2022-10-11T19:03:42.285Z,7.12
2022-10-11T19:06:50.906Z,6.75
2022-10-11T19:09:56.599Z,7.97
2022-10-11T19:13:02.529Z,7.53
2022-10-11T19:16:08.781Z,8.08
2022-10-11T19:19:15.996Z,6.92
2022-10-11T19:22:22.889Z,8.03
2022-10-11T19:25:28.697Z,8.25
2022-10-11T19:28:34.820Z,7.67
2022-10-11T19:31:40.332Z,8.28
2022-10-11T19:34:46.164Z,8.53
2022-10-11T19:37:54.269Z,8.33
2022-10-11T19:41:01.282Z,8.55
2022-10-11T19:44:08.309Z,7.95
2022-10-11T19:47:14.087Z,8.45
2022-10-11T19:50:22.725Z,8.48
2022-10-11T19:53:29.550Z,11.05
2022-10-11T19:56:40.012Z,10.88
2022-10-11T19:59:46.944Z,10.03
2022-10-11T20:02:47.449Z,12.05
2022-10-11T20:05:40.007Z,13.62
2022-10-11T20:08:45.859Z,13.65
2022-10-11T20:11:52.304Z,15.35
2022-10-11T20:14:58.780Z,14.63
2022-10-11T20:18:03.728Z,17.07
2022-10-11T20:21:15.791Z,16.32
2022-10-11T20:24:24.641Z,16.35
2022-10-11T20:27:30.497Z,16.97
2022-10-11T20:30:39.498Z,15.85
2022-10-11T20:33:45.461Z,15.13
2022-10-11T20:36:51.951Z,14.53
2022-10-11T20:39:57.945Z,12.98
2022-10-11T20:43:02.658Z,14.20
2022-10-11T20:46:23.968Z,13.15
2022-10-11T20:49:30.725Z,13.93
2022-10-11T20:52:37.093Z,14.15
2022-10-11T20:55:43.005Z,13.95
2022-10-11T20:58:48.288Z,14.80
2022-10-11T21:01:56.055Z,15.15
2022-10-11T21:05:02.946Z,14.75
2022-10-11T21:08:09.954Z,15.80
2022-10-11T21:11:16.950Z,17.07
2022-10-11T21:14:22.506Z,16.20
2022-10-11T21:17:30.609Z,14.85
2022-10-11T21:20:37.584Z,15.15
2022-10-11T21:23:45.540Z,13.70
2022-10-11T21:26:55.839Z,12.35
2022-10-11T21:30:00.243Z,12.18
2022-10-11T21:33:05.989Z,11.33
2022-10-11T21:36:11.767Z,10.65
2022-10-11T21:39:20.291Z,11.60
2022-10-11T21:42:29.512Z,10.72
2022-10-11T21:45:34.504Z,11.40
2022-10-11T21:48:39.456Z,10.15
2022-10-11T21:51:45.550Z,10.32
2022-10-11T21:54:51.860Z,9.38
2022-10-11T21:57:58.899Z,8.48
2022-10-11T22:01:06.533Z,7.62
2022-10-11T22:04:14.436Z,7.53
2022-10-11T22:07:19.384Z,6.95
2022-10-11T22:10:25.392Z,7.33
2022-10-11T22:13:32.628Z,6.75
2022-10-11T22:16:39.522Z,8.10
2022-10-11T22:19:47.995Z,8.80
2022-10-11T22:22:54.194Z,9.55
2022-10-11T22:26:00.528Z,9.75
2022-10-11T22:29:07.689Z,11.53
2022-10-11T22:32:14.599Z,20.80
2022-10-11T22:35:21.762Z,18.23
2022-10-11T22:38:28.898Z,24.45
2022-10-11T22:41:34.508Z,27.73
2022-10-11T22:44:41.011Z,30.12
2022-10-11T22:47:46.318Z,28.32
2022-10-11T22:50:51.883Z,27.62
2022-10-11T22:53:58.927Z,23.60
2022-10-11T22:57:04.308Z,22.62
2022-10-11T23:00:12.085Z,23.07
2022-10-11T23:03:19.657Z,21.07
2022-10-11T23:06:26.274Z,20.70
2022-10-11T23:09:34.573Z,19.15
2022-10-11T23:12:40.082Z,16.70
2022-10-11T23:15:46.085Z,16.82
2022-10-11T23:18:52.498Z,14.23
2022-10-11T23:21:58.005Z,15.20
2022-10-11T23:25:03.666Z,14.20
2022-10-11T23:28:10.250Z,13.95
2022-10-11T23:31:23.798Z,13.68
2022-10-11T23:34:30.135Z,14.55
2022-10-11T23:37:36.683Z,13.40
2022-10-11T23:40:43.723Z,11.05
2022-10-11T23:43:49.641Z,12.60
2022-10-11T23:46:55.358Z,11.75
2022-10-11T23:50:01.408Z,12.95
2022-10-11T23:53:07.926Z,11.80
2022-10-11T23:56:14.022Z,11.80
2022-10-11T23:59:22.513Z,10.72
